createdAt,value
2024-01-19T00:08:46.922Z,-1.32
2024-01-19T00:18:51.149Z,-1.40
2024-01-19T00:28:53.950Z,-1.30
2024-01-19T00:38:58.297Z,-1.35
2024-01-19T00:49:00.949Z,-1.38
2024-01-19T00:59:05.129Z,-1.43
2024-01-19T01:09:08.740Z,-1.40
2024-01-19T01:19:12.858Z,-1.65
2024-01-19T01:29:15.676Z,-1.71
2024-01-19T01:39:20.238Z,-1.74
2024-01-19T01:49:23.239Z,-1.71
2024-01-19T01:59:27.919Z,-1.81
2024-01-19T02:09:31.340Z,-1.91
2024-01-19T02:19:36.823Z,-1.94
2024-01-19T02:29:41.044Z,-2.12
2024-01-19T02:39:43.789Z,-2.20
2024-01-19T02:49:48.258Z,-2.46
2024-01-19T02:59:50.859Z,-2.63
2024-01-19T03:09:55.004Z,-2.81
2024-01-19T03:19:57.735Z,-2.90
2024-01-19T03:30:01.934Z,-2.94
2024-01-19T03:40:07.490Z,-3.01
2024-01-19T03:50:12.406Z,-2.96
2024-01-19T04:00:15.580Z,-2.94
2024-01-19T04:10:19.640Z,-2.89
2024-01-19T04:20:22.451Z,-2.97
2024-01-19T04:30:26.620Z,-3.44
2024-01-19T04:40:29.363Z,-3.59
2024-01-19T04:50:33.622Z,-3.60
2024-01-19T05:00:36.363Z,-3.59
2024-01-19T05:10:40.634Z,-3.44
2024-01-19T05:20:43.545Z,-3.41
2024-01-19T05:30:49.635Z,-3.43
2024-01-19T05:40:52.401Z,-3.45
2024-01-19T05:50:56.684Z,-3.46
2024-01-19T06:00:59.722Z,-3.43
2024-01-19T06:11:03.864Z,-3.32
2024-01-19T06:21:11.425Z,-3.32
2024-01-19T06:31:15.540Z,-3.19
2024-01-19T06:41:19.059Z,-3.33
2024-01-19T06:51:25.540Z,-3.57
2024-01-19T07:01:28.387Z,-3.57
2024-01-19T07:11:32.490Z,-3.50
2024-01-19T07:21:41.288Z,-3.44
2024-01-19T07:31:45.419Z,-3.28
2024-01-19T07:41:48.157Z,-3.12
2024-01-19T07:51:52.312Z,-2.94
2024-01-19T08:01:55.403Z,-2.68
2024-01-19T08:11:59.606Z,-2.54
2024-01-19T08:22:02.472Z,-2.61
2024-01-19T08:32:06.871Z,-2.56
2024-01-19T08:42:09.722Z,-2.74
2024-01-19T08:52:13.842Z,-1.73
2024-01-19T09:02:16.644Z,-1.66
2024-01-19T09:12:20.793Z,-0.40
2024-01-19T09:22:23.347Z,0.18
2024-01-19T09:32:28.085Z,0.29
2024-01-19T09:42:34.721Z,1.85
2024-01-19T09:52:51.027Z,1.24
2024-01-19T10:02:56.854Z,-0.17
2024-01-19T10:13:02.345Z,-0.52
2024-01-19T10:23:19.786Z,0.77
2024-01-19T10:33:23.927Z,2.74
2024-01-19T10:43:28.161Z,3.84
2024-01-19T10:53:32.448Z,1.30
2024-01-19T11:03:35.272Z,1.31
2024-01-19T11:13:41.371Z,0.55
2024-01-19T11:23:45.061Z,0.29
2024-01-19T11:33:49.377Z,1.19
2024-01-19T11:43:52.284Z,0.81
2024-01-19T11:54:01.246Z,1.00
2024-01-19T12:04:04.390Z,1.45
2024-01-19T12:14:10.746Z,2.31
2024-01-19T12:24:20.494Z,4.07
2024-01-19T12:34:24.589Z,2.86
2024-01-19T12:44:27.958Z,1.77
2024-01-19T12:54:44.416Z,1.13
2024-01-19T13:04:47.359Z,1.16
2024-01-19T13:14:51.464Z,1.34
2024-01-19T13:24:54.476Z,1.15
2024-01-19T13:34:58.604Z,1.52
2024-01-19T13:45:03.519Z,1.65
2024-01-19T13:55:09.786Z,1.50
2024-01-19T14:05:12.807Z,1.15
2024-01-19T14:15:17.318Z,1.33
2024-01-19T14:25:20.061Z,2.93
2024-01-19T14:35:24.749Z,3.34
2024-01-19T14:45:27.652Z,1.85
2024-01-19T14:55:32.117Z,1.31
2024-01-19T15:05:35.007Z,0.76
2024-01-19T15:15:39.066Z,0.46
2024-01-19T15:25:42.427Z,0.17
2024-01-19T15:35:46.851Z,-0.06
2024-01-19T15:45:51.661Z,-0.24
2024-01-19T15:55:55.809Z,-0.27
2024-01-19T16:05:58.774Z,-0.35
2024-01-19T16:16:08.502Z,-0.55
2024-01-19T16:26:11.410Z,-0.69
2024-01-19T16:36:15.639Z,-0.72
2024-01-19T16:46:21.986Z,-0.73
2024-01-19T16:56:26.511Z,-0.80
2024-01-19T17:06:29.547Z,-0.79
2024-01-19T17:16:34.092Z,-0.93
2024-01-19T17:26:36.673Z,-0.88
2024-01-19T17:36:40.798Z,-0.95
2024-01-19T17:46:44.654Z,-1.07
2024-01-19T17:56:48.778Z,-1.13
2024-01-19T18:06:51.805Z,-1.23
2024-01-19T18:16:56.712Z,-1.22
2024-01-19T18:27:00.312Z,-1.21
2024-01-19T18:37:05.444Z,-1.38
2024-01-19T18:47:08.539Z,-1.59
2024-01-19T18:57:15.096Z,-1.63
2024-01-19T19:07:19.037Z,-1.66
2024-01-19T19:17:23.418Z,-1.80
2024-01-19T19:27:26.374Z,-1.85
2024-01-19T19:37:30.448Z,-2.02
2024-01-19T19:47:33.214Z,-2.18
2024-01-19T19:57:39.131Z,-2.41
2024-01-19T20:07:42.016Z,-2.57
2024-01-19T20:17:50.528Z,-2.71
2024-01-19T20:27:53.544Z,-2.82
2024-01-19T20:37:57.873Z,-2.85
2024-01-19T20:48:01.066Z,-2.90
2024-01-19T20:58:05.990Z,-2.88
2024-01-19T21:08:09.223Z,-2.90
2024-01-19T21:18:13.504Z,-2.96
2024-01-19T21:28:16.773Z,-2.98
2024-01-19T21:38:20.923Z,-3.06
2024-01-19T21:48:24.019Z,-3.21
2024-01-19T21:58:28.293Z,-3.22
2024-01-19T22:08:31.572Z,-3.31
2024-01-19T22:18:38.210Z,-3.49
2024-01-19T22:28:41.255Z,-3.59
2024-01-19T22:38:45.938Z,-3.70
2024-01-19T22:48:49.514Z,-3.76
2024-01-19T22:58:57.554Z,-3.83
2024-01-19T23:09:00.968Z,-3.88
2024-01-19T23:19:19.769Z,-3.95
2024-01-19T23:29:25.077Z,-4.06
2024-01-19T23:39:30.227Z,-4.20
2024-01-19T23:49:34.998Z,-4.29
2024-01-19T23:59:39.118Z,-4.31
